Terminal Aerodrome Forecast
Issued by NWS St Louis, MO

Home | Current Version | Previous Version | Graphics & Text | Print | Product List | Glossary On
Versions: 1 2 3 4 5 6 7 8 9 10 11 12 13 14 15 16 17 18 19 20 21 22 23 24 25 26 27 28 29 30 31 32 33 34 35
755
FTUS43 KLSX 300520
TAFSTL
TAF
KSTL 300520Z 3006/0112 VRB05KT 6SM -SHRA VCTS BKN004CB
      TEMPO 3006/3009 SCT004CB
     FM300900 13010KT 5SM -SHRA VCTS OVC015CB
     FM301900 17015G25KT P6SM VCSH OVC035
     FM010000 19012G20KT P6SM BKN070
     FM010400 21009KT P6SM SCT100=

USA.gov is the U.S. government's official web portal to all federal, state and local government web resources and services.